Time,TemperatureF,DewpointF,PressureIn,WindDirection,WindDirectionDegrees,WindSpeedMPH,WindSpeedGustMPH,Humidity,HourlyPrecipIn,Conditions,Clouds,dailyrainin,SoftwareType,DateUTC
2011-03-23 00:05:00,31.3,19.0,29.93,SSE,157,0.0,0.0,60,0.00,,,0.02,open2300-1.11,2011-03-23 06:05:00,
2011-03-23 00:15:00,31.6,19.8,29.93,ENE,67,0.0,5.4,61,0.00,,,0.02,open2300-1.11,2011-03-23 06:15:00,
2011-03-23 00:25:00,31.8,19.9,29.93,East,90,0.0,5.1,61,0.00,,,0.02,open2300-1.11,2011-03-23 06:25:00,
2011-03-23 00:35:00,31.8,19.9,29.93,East,90,0.0,3.6,61,0.00,,,0.02,open2300-1.11,2011-03-23 06:35:00,
2011-03-23 00:45:00,31.3,19.0,29.92,East,90,0.0,0.0,60,0.00,,,0.02,open2300-1.11,2011-03-23 06:45:00,
2011-03-23 00:55:00,31.3,19.4,29.93,ESE,112,0.0,0.0,61,0.00,,,0.02,open2300-1.11,2011-03-23 06:55:00,
2011-03-23 01:05:00,31.3,19.4,29.93,East,90,0.0,0.7,61,0.00,,,0.02,open2300-1.11,2011-03-23 07:05:00,
2011-03-23 01:15:00,31.1,19.2,29.93,East,90,0.0,0.0,61,0.00,,,0.02,open2300-1.11,2011-03-23 07:15:00,
2011-03-23 01:25:00,30.9,19.0,29.93,East,90,0.0,0.0,61,0.00,,,0.02,open2300-1.11,2011-03-23 07:25:00,
2011-03-23 01:35:00,31.1,19.6,29.94,East,90,0.0,1.3,62,0.00,,,0.02,open2300-1.11,2011-03-23 07:35:00,
2011-03-23 01:45:00,30.9,19.0,29.94,East,90,0.0,0.0,61,0.00,,,0.02,open2300-1.11,2011-03-23 07:45:00,
2011-03-23 01:55:00,30.4,18.9,29.94,East,90,0.0,0.0,62,0.00,,,0.02,open2300-1.11,2011-03-23 07:55:00,
2011-03-23 02:05:00,30.6,19.0,29.94,ENE,67,0.9,0.9,62,0.00,,,0.02,open2300-1.11,2011-03-23 08:05:00,
2011-03-23 02:15:00,30.7,19.6,29.95,ENE,67,0.0,0.9,63,0.00,,,0.02,open2300-1.11,2011-03-23 08:15:00,
2011-03-23 02:25:00,30.7,19.2,29.94,East,90,0.0,0.0,62,0.00,,,0.02,open2300-1.11,2011-03-23 08:25:00,
2011-03-23 02:35:00,30.7,19.9,29.95,SE,135,0.9,2.9,64,0.00,,,0.02,open2300-1.11,2011-03-23 08:35:00,
2011-03-23 02:45:00,30.7,19.9,29.95,SE,135,0.0,1.8,64,0.00,,,0.02,open2300-1.11,2011-03-23 08:45:00,
2011-03-23 02:55:00,30.7,19.9,29.95,SE,135,0.9,3.1,64,0.00,,,0.02,open2300-1.11,2011-03-23 08:55:00,
2011-03-23 03:05:00,30.7,19.6,29.95,SSE,157,0.0,1.8,63,0.00,,,0.02,open2300-1.11,2011-03-23 09:05:00,
2011-03-23 03:15:00,30.4,19.6,29.95,East,90,1.6,2.5,64,0.00,,,0.02,open2300-1.11,2011-03-23 09:15:00,
2011-03-23 03:25:00,30.6,19.8,29.94,SE,135,0.0,3.4,64,0.00,,,0.02,open2300-1.11,2011-03-23 09:25:00,
2011-03-23 03:35:00,30.6,19.8,29.94,SE,135,1.8,1.8,64,0.00,,,0.02,open2300-1.11,2011-03-23 09:35:00,
2011-03-23 03:45:00,30.6,20.1,29.95,ESE,112,3.6,3.8,65,0.00,,,0.02,open2300-1.11,2011-03-23 09:45:00,
2011-03-23 03:55:00,30.4,19.9,29.95,ESE,112,3.1,6.0,65,0.00,,,0.02,open2300-1.11,2011-03-23 09:55:00,
2011-03-23 04:05:00,30.2,19.8,29.94,SE,135,3.1,4.7,65,0.00,,,0.02,open2300-1.11,2011-03-23 10:05:00,
2011-03-23 04:15:00,30.0,19.6,29.95,SSE,157,0.0,4.9,65,0.00,,,0.02,open2300-1.11,2011-03-23 10:15:00,
2011-03-23 04:25:00,30.0,19.6,29.94,East,90,0.0,0.9,65,0.00,,,0.02,open2300-1.11,2011-03-23 10:25:00,
2011-03-23 04:35:00,30.0,20.0,29.95,SE,135,0.0,2.5,66,0.00,,,0.02,open2300-1.11,2011-03-23 10:35:00,
2011-03-23 04:45:00,30.0,20.0,29.95,ESE,112,0.9,1.3,66,0.00,,,0.02,open2300-1.11,2011-03-23 10:45:00,
2011-03-23 04:55:00,30.0,20.0,29.94,SE,135,0.0,1.6,66,0.00,,,0.02,open2300-1.11,2011-03-23 10:55:00,
2011-03-23 05:05:00,30.0,20.0,29.94,SE,135,0.0,0.0,66,0.00,,,0.02,open2300-1.11,2011-03-23 11:05:00,
2011-03-23 05:15:00,29.8,19.8,29.94,ENE,67,2.9,2.9,66,0.00,,,0.02,open2300-1.11,2011-03-23 11:15:00,
2011-03-23 05:25:00,29.8,19.4,29.94,East,90,3.4,6.3,65,0.00,,,0.02,open2300-1.11,2011-03-23 11:25:00,
2011-03-23 05:35:00,29.7,19.3,29.94,ENE,67,5.1,5.1,65,0.00,,,0.02,open2300-1.11,2011-03-23 11:35:00,
2011-03-23 05:45:00,29.5,19.1,29.94,East,90,0.9,5.6,65,0.00,,,0.02,open2300-1.11,2011-03-23 11:45:00,
2011-03-23 05:55:00,29.5,19.1,29.94,East,90,4.5,5.8,65,0.00,,,0.02,open2300-1.11,2011-03-23 11:55:00,
2011-03-23 06:05:00,29.5,19.1,29.94,East,90,3.6,6.3,65,0.00,,,0.02,open2300-1.11,2011-03-23 12:05:00,
2011-03-23 06:15:00,29.5,19.1,29.94,East,90,3.1,5.4,65,0.00,,,0.02,open2300-1.11,2011-03-23 12:15:00,
2011-03-23 06:25:00,29.5,19.1,29.94,ENE,67,5.1,6.5,65,0.00,,,0.02,open2300-1.11,2011-03-23 12:25:00,
2011-03-23 06:35:00,29.5,19.1,29.94,East,90,6.3,6.7,65,0.00,,,0.02,open2300-1.11,2011-03-23 12:35:00,
2011-03-23 06:45:00,29.5,19.1,29.94,NE,45,9.4,9.4,65,0.00,,,0.02,open2300-1.11,2011-03-23 12:45:00,
2011-03-23 06:55:00,29.7,19.3,29.94,ESE,112,4.7,9.4,65,0.00,,,0.02,open2300-1.11,2011-03-23 12:55:00,
2011-03-23 07:05:00,29.5,19.1,29.94,ESE,112,1.1,5.8,65,0.00,,,0.02,open2300-1.11,2011-03-23 13:05:00,
2011-03-23 07:15:00,29.5,18.8,29.95,East,90,4.5,4.5,64,0.00,,,0.02,open2300-1.11,2011-03-23 13:15:00,
2011-03-23 07:25:00,29.1,18.4,29.95,ENE,67,6.9,6.9,64,0.00,,,0.02,open2300-1.11,2011-03-23 13:25:00,
2011-03-23 07:35:00,29.3,18.6,29.95,ENE,67,3.4,6.9,64,0.00,,,0.02,open2300-1.11,2011-03-23 13:35:00,
2011-03-23 07:45:00,29.5,18.8,29.95,ENE,67,5.4,6.5,64,0.00,,,0.02,open2300-1.11,2011-03-23 13:45:00,
2011-03-23 07:55:00,29.7,18.9,29.96,ENE,67,4.5,5.6,64,0.00,,,0.02,open2300-1.11,2011-03-23 13:55:00,
2011-03-23 08:05:00,29.7,18.9,29.96,ENE,67,4.5,6.3,64,0.00,,,0.02,open2300-1.11,2011-03-23 14:05:00,
2011-03-23 08:15:00,30.0,19.2,29.96,East,90,6.5,6.5,64,0.00,,,0.02,open2300-1.11,2011-03-23 14:15:00,
2011-03-23 08:25:00,30.7,19.9,29.96,ENE,67,6.3,6.9,64,0.00,,,0.02,open2300-1.11,2011-03-23 14:25:00,
2011-03-23 08:35:00,31.3,20.1,29.97,East,90,3.4,7.8,63,0.00,,,0.02,open2300-1.11,2011-03-23 14:35:00,
2011-03-23 08:45:00,32.2,21.0,29.97,SSE,157,1.6,4.5,63,0.00,,,0.02,open2300-1.11,2011-03-23 14:45:00,
2011-03-23 08:55:00,32.9,21.3,29.97,SSE,157,1.3,1.6,62,0.00,,,0.02,open2300-1.11,2011-03-23 14:55:00,
2011-03-23 09:05:00,33.6,21.6,29.97,ESE,112,0.0,1.3,61,0.00,,,0.00,open2300-1.11,2011-03-23 15:05:00,
2011-03-23 09:15:00,34.5,22.1,29.98,ENE,67,2.2,2.7,60,0.00,,,0.00,open2300-1.11,2011-03-23 15:15:00,
2011-03-23 09:25:00,35.4,23.0,29.98,SE,135,1.3,2.2,60,0.00,,,0.00,open2300-1.11,2011-03-23 15:25:00,
2011-03-23 09:35:00,36.1,23.2,29.99,SSE,157,1.1,2.2,59,0.00,,,0.00,open2300-1.11,2011-03-23 15:35:00,
2011-03-23 09:45:00,37.2,23.3,29.99,SSE,157,0.0,1.1,57,0.00,,,0.00,open2300-1.11,2011-03-23 15:45:00,
2011-03-23 09:55:00,37.9,24.0,29.99,SSE,157,0.0,1.6,57,0.00,,,0.00,open2300-1.11,2011-03-23 15:55:00,
2011-03-23 10:05:00,38.7,24.6,30.00,SSE,157,0.0,0.0,57,0.00,,,0.00,open2300-1.11,2011-03-23 16:05:00,
2011-03-23 10:15:00,39.4,24.9,30.00,WNW,292,0.0,2.0,56,0.00,,,0.00,open2300-1.11,2011-03-23 16:15:00,
2011-03-23 10:25:00,40.1,25.6,30.00,West,270,2.7,2.7,56,0.00,,,0.00,open2300-1.11,2011-03-23 16:25:00,
2011-03-23 10:35:00,40.8,26.2,30.00,WNW,292,4.2,5.1,56,0.00,,,0.00,open2300-1.11,2011-03-23 16:35:00,
2011-03-23 10:45:00,41.7,26.6,30.00,NNW,337,0.0,4.2,55,0.00,,,0.00,open2300-1.11,2011-03-23 16:45:00,
2011-03-23 10:55:00,42.6,27.1,29.99,WNW,292,1.1,4.7,54,0.00,,,0.00,open2300-1.11,2011-03-23 16:55:00,
2011-03-23 11:05:00,43.3,27.3,30.00,West,270,0.0,2.5,53,0.00,,,0.00,open2300-1.11,2011-03-23 17:05:00,
2011-03-23 11:15:00,44.2,28.1,30.00,NW,315,0.0,1.8,53,0.00,,,0.00,open2300-1.11,2011-03-23 17:15:00,
2011-03-23 11:25:00,45.1,28.5,30.00,West,270,0.0,6.5,52,0.00,,,0.00,open2300-1.11,2011-03-23 17:25:00,
2011-03-23 11:35:00,46.0,28.9,29.99,WNW,292,0.0,4.9,51,0.00,,,0.00,open2300-1.11,2011-03-23 17:35:00,
2011-03-23 11:45:00,46.6,29.4,29.99,NW,315,0.0,4.2,51,0.00,,,0.00,open2300-1.11,2011-03-23 17:45:00,
2011-03-23 11:55:00,47.3,29.6,29.99,NNW,337,4.0,4.0,50,0.00,,,0.00,open2300-1.11,2011-03-23 17:55:00,
2011-03-23 12:05:00,48.0,29.7,29.99,WSW,247,5.1,5.1,49,0.00,,,0.00,open2300-1.11,2011-03-23 18:05:00,
2011-03-23 12:15:00,48.7,30.4,29.97,WNW,292,0.0,5.1,49,0.00,,,0.00,open2300-1.11,2011-03-23 18:15:00,
2011-03-23 12:25:00,49.6,30.7,29.97,NNE,22,1.8,5.6,48,0.00,,,0.00,open2300-1.11,2011-03-23 18:25:00,
2011-03-23 12:35:00,50.2,30.7,29.97,WNW,292,0.0,2.2,47,0.00,,,0.00,open2300-1.11,2011-03-23 18:35:00,
2011-03-23 12:45:00,50.5,29.9,29.97,SW,225,1.6,2.5,45,0.00,,,0.00,open2300-1.11,2011-03-23 18:45:00,
2011-03-23 12:55:00,51.1,29.8,29.97,West,270,0.0,4.2,44,0.00,,,0.00,open2300-1.11,2011-03-23 18:55:00,
2011-03-23 13:05:00,51.6,29.7,29.97,ESE,112,0.0,5.8,43,0.00,,,0.00,open2300-1.11,2011-03-23 19:05:00,
2011-03-23 13:15:00,52.3,30.9,29.96,North,0,0.0,0.0,44,0.00,,,0.00,open2300-1.11,2011-03-23 19:15:00,
2011-03-23 13:25:00,52.9,31.4,29.95,WNW,292,0.0,3.6,44,0.00,,,0.00,open2300-1.11,2011-03-23 19:25:00,
2011-03-23 13:35:00,53.4,31.4,29.94,West,270,1.6,3.1,43,0.00,,,0.00,open2300-1.11,2011-03-23 19:35:00,
2011-03-23 13:45:00,54.0,31.3,29.95,WNW,292,0.0,3.8,42,0.00,,,0.00,open2300-1.11,2011-03-23 19:45:00,
2011-03-23 13:55:00,54.7,31.4,29.94,WSW,247,1.6,2.9,41,0.00,,,0.00,open2300-1.11,2011-03-23 19:55:00,
2011-03-23 14:05:00,55.0,30.4,29.94,ESE,112,1.1,4.9,39,0.00,,,0.00,open2300-1.11,2011-03-23 20:05:00,
2011-03-23 14:15:00,55.2,29.9,29.94,SSW,202,0.0,6.3,38,0.00,,,0.00,open2300-1.11,2011-03-23 20:15:00,
2011-03-23 14:25:00,55.9,31.2,29.93,SW,225,0.0,1.1,39,0.00,,,0.00,open2300-1.11,2011-03-23 20:25:00,
2011-03-23 14:35:00,56.1,30.0,29.92,NW,315,0.0,0.7,37,0.00,,,0.00,open2300-1.11,2011-03-23 20:35:00,
2011-03-23 14:45:00,56.5,30.3,29.92,WSW,247,2.0,4.7,37,0.00,,,0.00,open2300-1.11,2011-03-23 20:45:00,
2011-03-23 14:55:00,57.0,30.8,29.91,South,180,2.5,2.5,37,0.00,,,0.00,open2300-1.11,2011-03-23 20:55:00,
2011-03-23 15:05:00,57.4,31.1,29.91,NW,315,2.0,2.5,37,0.00,,,0.00,open2300-1.11,2011-03-23 21:05:00,
2011-03-23 15:15:00,57.9,30.2,29.90,North,0,2.9,2.9,35,0.00,,,0.00,open2300-1.11,2011-03-23 21:15:00,
2011-03-23 15:25:00,58.3,30.5,29.89,WSW,247,0.0,4.0,35,0.00,,,0.00,open2300-1.11,2011-03-23 21:25:00,
2011-03-23 15:35:00,58.6,30.2,29.89,SSW,202,0.0,2.7,34,0.00,,,0.00,open2300-1.11,2011-03-23 21:35:00,
2011-03-23 15:45:00,58.8,30.3,29.88,West,270,2.0,6.0,34,0.00,,,0.00,open2300-1.11,2011-03-23 21:45:00,
2011-03-23 15:55:00,59.0,28.4,29.88,North,0,0.0,2.5,31,0.00,,,0.00,open2300-1.11,2011-03-23 21:55:00,
2011-03-23 16:05:00,59.2,29.9,29.87,West,270,0.0,2.5,33,0.00,,,0.00,open2300-1.11,2011-03-23 22:05:00,
2011-03-23 16:15:00,59.9,29.1,29.87,WSW,247,0.0,3.8,31,0.00,,,0.00,open2300-1.11,2011-03-23 22:15:00,
2011-03-23 16:25:00,60.6,29.0,29.86,SSE,157,0.0,2.0,30,0.00,,,0.00,open2300-1.11,2011-03-23 22:25:00,
2011-03-23 16:35:00,61.0,30.7,29.85,WSW,247,1.6,4.0,32,0.00,,,0.00,open2300-1.11,2011-03-23 22:35:00,
2011-03-23 16:45:00,61.3,29.6,29.85,WNW,292,4.7,4.7,30,0.00,,,0.00,open2300-1.11,2011-03-23 22:45:00,
2011-03-23 16:55:00,61.9,30.1,29.85,WNW,292,0.0,4.7,30,0.00,,,0.00,open2300-1.11,2011-03-23 22:55:00,
2011-03-23 17:05:00,63.0,31.1,29.85,West,270,0.4,0.4,30,0.00,,,0.00,open2300-1.11,2011-03-23 23:05:00,
2011-03-23 17:15:00,64.0,31.0,29.84,West,270,1.3,4.2,29,0.00,,,0.00,open2300-1.11,2011-03-23 23:15:00,
2011-03-23 17:25:00,65.3,28.2,29.84,SSW,202,3.4,3.4,25,0.00,,,0.00,open2300-1.11,2011-03-23 23:25:00,
2011-03-23 17:35:00,66.4,27.1,29.84,South,180,0.0,3.4,23,0.00,,,0.00,open2300-1.11,2011-03-23 23:35:00,
2011-03-23 17:45:00,67.8,28.3,29.83,WSW,247,0.0,1.3,23,0.00,,,0.00,open2300-1.11,2011-03-23 23:45:00,
2011-03-23 17:55:00,65.5,23.3,29.83,WSW,247,4.2,4.9,20,0.00,,,0.00,open2300-1.11,2011-03-23 23:55:00,
2011-03-23 18:05:00,61.2,22.7,29.83,SSE,157,2.0,4.2,23,0.00,,,0.00,open2300-1.11,2011-03-24 00:05:00,
2011-03-23 18:15:00,58.8,19.7,29.82,SE,135,3.6,3.6,22,0.00,,,0.00,open2300-1.11,2011-03-24 00:15:00,
2011-03-23 18:25:00,57.0,21.1,29.83,SE,135,1.6,4.0,25,0.00,,,0.00,open2300-1.11,2011-03-24 00:25:00,
2011-03-23 18:35:00,56.3,20.5,29.83,SE,135,0.0,1.6,25,0.00,,,0.00,open2300-1.11,2011-03-24 00:35:00,
2011-03-23 18:45:00,55.8,20.1,29.82,East,90,0.0,2.0,25,0.00,,,0.00,open2300-1.11,2011-03-24 00:45:00,
2011-03-23 18:55:00,54.7,19.1,29.82,SSE,157,0.0,1.3,25,0.00,,,0.00,open2300-1.11,2011-03-24 00:55:00,
2011-03-23 19:05:00,53.8,18.4,29.83,SE,135,0.0,0.9,25,0.00,,,0.00,open2300-1.11,2011-03-24 01:05:00,
2011-03-23 19:15:00,52.9,16.7,29.82,SE,135,0.0,0.2,24,0.00,,,0.00,open2300-1.11,2011-03-24 01:15:00,
2011-03-23 19:25:00,52.3,19.0,29.82,ENE,67,2.5,2.5,27,0.00,,,0.00,open2300-1.11,2011-03-24 01:25:00,
2011-03-23 19:35:00,51.6,18.4,29.82,East,90,1.3,2.5,27,0.00,,,0.00,open2300-1.11,2011-03-24 01:35:00,
2011-03-23 19:45:00,51.3,19.0,29.81,ENE,67,6.0,6.0,28,0.00,,,0.00,open2300-1.11,2011-03-24 01:45:00,
2011-03-23 19:55:00,50.7,18.5,29.81,East,90,4.0,6.0,28,0.00,,,0.00,open2300-1.11,2011-03-24 01:55:00,
2011-03-23 20:05:00,50.2,19.9,29.81,NE,45,5.8,5.8,30,0.00,,,0.00,open2300-1.11,2011-03-24 02:05:00,
2011-03-23 20:15:00,49.6,19.5,29.81,NE,45,3.8,5.8,30,0.00,,,0.00,open2300-1.11,2011-03-24 02:15:00,
2011-03-23 20:25:00,49.3,19.9,29.81,NE,45,2.0,6.0,31,0.00,,,0.00,open2300-1.11,2011-03-24 02:25:00,
2011-03-23 20:35:00,48.7,19.4,29.80,ENE,67,3.1,4.5,31,0.00,,,0.00,open2300-1.11,2011-03-24 02:35:00,
2011-03-23 20:45:00,48.4,18.5,29.80,East,90,2.7,4.0,30,0.00,,,0.00,open2300-1.11,2011-03-24 02:45:00,
2011-03-23 20:55:00,48.0,18.2,29.80,ESE,112,0.0,2.7,30,0.00,,,0.00,open2300-1.11,2011-03-24 02:55:00,
2011-03-23 21:05:00,47.5,18.3,29.80,ENE,67,0.0,4.0,31,0.00,,,0.00,open2300-1.11,2011-03-24 03:05:00,
2011-03-23 21:15:00,47.1,18.0,29.79,East,90,5.4,5.4,31,0.00,,,0.00,open2300-1.11,2011-03-24 03:15:00,
2011-03-23 21:25:00,46.9,17.9,29.79,ENE,67,4.7,5.4,31,0.00,,,0.00,open2300-1.11,2011-03-24 03:25:00,
2011-03-23 21:35:00,46.8,17.7,29.79,East,90,0.0,4.7,31,0.00,,,0.00,open2300-1.11,2011-03-24 03:35:00,
2011-03-23 21:45:00,46.2,17.2,29.79,ENE,67,0.0,1.1,31,0.00,,,0.00,open2300-1.11,2011-03-24 03:45:00,
2011-03-23 21:55:00,45.7,16.7,29.79,SE,135,0.0,2.0,31,0.00,,,0.00,open2300-1.11,2011-03-24 03:55:00,
2011-03-23 22:05:00,44.8,16.6,29.78,ESE,112,0.0,2.5,32,0.00,,,0.00,open2300-1.11,2011-03-24 04:05:00,
2011-03-23 22:15:00,44.4,16.9,29.78,East,90,0.7,2.5,33,0.00,,,0.00,open2300-1.11,2011-03-24 04:15:00,
2011-03-23 22:25:00,44.4,16.9,29.78,East,90,4.0,8.5,33,0.00,,,0.00,open2300-1.11,2011-03-24 04:25:00,
2011-03-23 22:35:00,44.4,16.9,29.78,NE,45,6.7,6.7,33,0.00,,,0.00,open2300-1.11,2011-03-24 04:35:00,
2011-03-23 22:45:00,44.8,17.2,29.78,East,90,5.6,7.2,33,0.00,,,0.00,open2300-1.11,2011-03-24 04:45:00,
2011-03-23 22:55:00,45.0,16.7,29.77,NE,45,4.0,8.1,32,0.00,,,0.00,open2300-1.11,2011-03-24 04:55:00,
2011-03-23 23:05:00,44.6,16.4,29.78,SSE,157,4.9,4.9,32,0.00,,,0.00,open2300-1.11,2011-03-24 05:05:00,
2011-03-23 23:15:00,45.1,16.2,29.76,ESE,112,4.9,5.8,31,0.00,,,0.00,open2300-1.11,2011-03-24 05:15:00,
2011-03-23 23:25:00,46.2,16.5,29.76,SE,135,11.6,11.6,30,0.00,,,0.00,open2300-1.11,2011-03-24 05:25:00,
2011-03-23 23:35:00,47.1,15.5,29.76,ESE,112,6.7,11.6,28,0.00,,,0.00,open2300-1.11,2011-03-24 05:35:00,
2011-03-23 23:45:00,47.7,16.0,29.75,ENE,67,9.4,9.4,28,0.00,,,0.00,open2300-1.11,2011-03-24 05:45:00,
2011-03-23 23:55:00,47.5,15.8,29.75,ESE,112,6.5,9.4,28,0.00,,,0.00,open2300-1.11,2011-03-24 05:55:00,